Time;durP1;ratioP1;P1;durP2;ratioP2;P2;SDS_P1;SDS_P2;PMS_P1;PMS_P2;Temp;Humidity;BMP_temperature;BMP_pressure;BME280_temperature;BME280_humidity;BME280_pressure;Samples;Min_cycle;Max_cycle;Signal;HPM_P1;HPM_P2
2021/12/09 00:01:05;;;;;;;;;;;23.00;54.40;;;;;;5116764;28;19924;-45
2021/12/09 00:03:35;;;;;;;;;;;23.00;54.40;;;;;;5116709;28;19924;-51
2021/12/09 00:06:03;;;;;;;;;;;23.00;54.50;;;;;;5116516;28;19924;-54
2021/12/09 00:08:30;;;;;;;;;;;23.00;54.40;;;;;;5116155;28;19924;-50
2021/12/09 00:10:59;;;;;;;;;;;22.90;54.40;;;;;;5116569;28;19928;-52
2021/12/09 00:13:28;;;;;;;;;;;23.00;54.40;;;;;;5115657;27;20328;-50
2021/12/09 00:15:55;;;;;;;;;;;22.90;54.40;;;;;;5116809;28;19968;-52
2021/12/09 00:18:22;;;;;;;;;;;22.90;54.40;;;;;;5116529;28;19927;-46
2021/12/09 00:20:50;;;;;;;;;;;22.90;54.40;;;;;;5116741;28;19966;-47
2021/12/09 00:23:17;;;;;;;;;;;22.90;54.40;;;;;;5098427;28;19927;-51
2021/12/09 00:25:44;;;;;;;;;;;22.90;54.40;;;;;;5116114;28;19923;-53
2021/12/09 00:28:11;;;;;;;;;;;22.90;54.40;;;;;;5115178;27;19924;-45
2021/12/09 00:30:38;;;;;;;;;;;22.90;54.40;;;;;;5116202;28;20031;-48
2021/12/09 00:33:06;;;;;;;;;;;22.90;54.40;;;;;;5116155;28;19924;-53
2021/12/09 00:35:52;;;;;;;;;;;22.90;54.40;;;;;;5116428;28;20336;-50
2021/12/09 00:38:33;;;;;;;;;;;22.90;54.40;;;;;;5116396;28;19976;-49
2021/12/09 00:41:05;;;;;;;;;;;22.90;54.40;;;;;;5116346;28;19973;-52
2021/12/09 00:43:33;;;;;;;;;;;22.90;54.40;;;;;;5115135;27;19931;-47
2021/12/09 00:46:00;;;;;;;;;;;22.90;54.40;;;;;;5116165;28;20316;-48
2021/12/09 00:48:27;;;;;;;;;;;22.90;54.40;;;;;;5115864;28;19997;-53
2021/12/09 00:50:55;;;;;;;;;;;22.90;54.40;;;;;;5115813;28;19930;-50
2021/12/09 00:53:22;;;;;;;;;;;22.90;54.40;;;;;;5115588;28;19931;-50
2021/12/09 00:55:49;;;;;;;;;;;22.90;54.40;;;;;;5115578;28;19924;-49
2021/12/09 00:58:17;;;;;;;;;;;22.90;54.40;;;;;;5114995;27;20279;-47
2021/12/09 01:00:44;;;;;;;;;;;22.90;54.40;;;;;;5115897;28;19924;-50
2021/12/09 01:03:12;;;;;;;;;;;22.90;54.40;;;;;;5115837;28;19949;-45
2021/12/09 01:05:40;;;;;;;;;;;22.90;54.40;;;;;;5115426;28;19924;-49
2021/12/09 01:08:07;;;;;;;;;;;22.80;54.40;;;;;;5115452;28;19931;-54
2021/12/09 01:10:34;;;;;;;;;;;22.90;54.50;;;;;;5115720;28;20039;-56
2021/12/09 01:13:01;;;;;;;;;;;22.80;54.40;;;;;;5114078;28;19924;-52
2021/12/09 01:15:28;;;;;;;;;;;22.80;54.40;;;;;;5115632;28;19976;-56
2021/12/09 01:17:56;;;;;;;;;;;22.80;54.40;;;;;;5114787;28;19931;-57
2021/12/09 01:20:26;;;;;;;;;;;22.90;54.50;;;;;;5115066;28;19927;-54
2021/12/09 01:22:54;;;;;;;;;;;22.80;54.40;;;;;;5115514;28;19953;-55
2021/12/09 01:25:22;;;;;;;;;;;22.80;54.40;;;;;;5115117;28;19924;-52
2021/12/09 01:27:51;;;;;;;;;;;22.80;54.40;;;;;;5115104;28;19928;-53
2021/12/09 01:30:19;;;;;;;;;;;22.80;54.40;;;;;;5114197;28;20324;-57
2021/12/09 01:32:49;;;;;;;;;;;22.80;54.40;;;;;;5115307;28;19946;-50
2021/12/09 01:35:38;;;;;;;;;;;22.80;54.40;;;;;;5114957;28;20022;-54
2021/12/09 01:38:09;;;;;;;;;;;22.80;54.40;;;;;;5115256;28;19969;-56
2021/12/09 01:40:37;;;;;;;;;;;22.80;54.50;;;;;;5114933;28;19923;-50
2021/12/09 01:43:04;;;;;;;;;;;22.80;54.40;;;;;;5115518;28;19924;-49
2021/12/09 01:45:31;;;;;;;;;;;22.80;54.40;;;;;;5114346;28;20282;-45
2021/12/09 01:47:58;;;;;;;;;;;22.80;54.40;;;;;;5114732;28;20379;-51
2021/12/09 01:50:26;;;;;;;;;;;22.80;54.40;;;;;;5115014;28;19993;-45
2021/12/09 01:52:53;;;;;;;;;;;22.80;54.50;;;;;;5115097;28;19969;-46
2021/12/09 01:55:21;;;;;;;;;;;22.80;54.40;;;;;;5114797;28;19931;-54
2021/12/09 01:57:49;;;;;;;;;;;22.80;54.50;;;;;;5114866;28;19937;-55
2021/12/09 02:00:19;;;;;;;;;;;22.80;54.50;;;;;;5113358;27;19923;-56
2021/12/09 02:02:47;;;;;;;;;;;22.80;54.50;;;;;;5114528;28;19977;-46
2021/12/09 02:05:26;;;;;;;;;;;22.80;55.10;;;;;;5114738;28;20290;-54
2021/12/09 02:07:53;;;;;;;;;;;22.80;54.50;;;;;;5096474;28;19924;-46
2021/12/09 02:10:20;;;;;;;;;;;22.80;54.50;;;;;;5114368;28;19931;-51
2021/12/09 02:12:48;;;;;;;;;;;22.80;54.50;;;;;;5114685;28;20360;-54
2021/12/09 02:15:16;;;;;;;;;;;22.80;54.50;;;;;;5095579;28;19923;-48
2021/12/09 02:17:44;;;;;;;;;;;22.80;54.50;;;;;;5114247;28;19927;-52
2021/12/09 02:20:11;;;;;;;;;;;22.80;54.50;;;;;;5114557;28;19985;-50
2021/12/09 02:22:38;;;;;;;;;;;22.80;54.50;;;;;;5114078;28;19924;-54
2021/12/09 02:25:05;;;;;;;;;;;22.80;54.50;;;;;;5114328;28;19931;-50
2021/12/09 02:27:32;;;;;;;;;;;22.80;54.50;;;;;;5114508;28;19992;-52
2021/12/09 02:30:00;;;;;;;;;;;22.80;54.50;;;;;;5112723;28;19924;-50
2021/12/09 02:32:27;;;;;;;;;;;22.80;54.50;;;;;;5114133;28;19988;-54
2021/12/09 02:34:53;;;;;;;;;;;22.80;54.50;;;;;;5114440;28;19924;-51
2021/12/09 02:37:20;;;;;;;;;;;22.70;54.40;;;;;;5114406;28;20313;-55
2021/12/09 02:39:47;;;;;;;;;;;22.70;54.50;;;;;;5114037;28;19923;-55
2021/12/09 02:42:15;;;;;;;;;;;22.70;54.40;;;;;;5114042;28;19927;-51
2021/12/09 02:44:42;;;;;;;;;;;22.80;54.50;;;;;;5114137;28;19954;-56
2021/12/09 02:47:09;;;;;;;;;;;22.70;54.50;;;;;;5113921;28;19981;-47
2021/12/09 02:49:36;;;;;;;;;;;22.70;54.40;;;;;;5113983;28;19927;-47
2021/12/09 02:52:04;;;;;;;;;;;22.70;54.40;;;;;;5114182;28;19927;-51
2021/12/09 02:54:31;;;;;;;;;;;22.70;54.50;;;;;;5113917;28;19973;-52
2021/12/09 02:57:00;;;;;;;;;;;22.70;54.50;;;;;;5096288;28;19923;-50
2021/12/09 02:59:27;;;;;;;;;;;22.70;54.50;;;;;;5112624;28;19977;-49
2021/12/09 03:01:57;;;;;;;;;;;22.70;54.50;;;;;;5115023;28;19924;-46
2021/12/09 03:04:43;;;;;;;;;;;22.70;54.50;;;;;;5113916;28;20353;-49
2021/12/09 03:07:15;;;;;;;;;;;22.70;54.50;;;;;;5114065;28;19927;-46
2021/12/09 03:09:49;;;;;;;;;;;22.70;54.80;;;;;;5113793;28;19924;-53
2021/12/09 03:12:20;;;;;;;;;;;22.70;54.50;;;;;;5114130;28;20337;-54
2021/12/09 03:14:48;;;;;;;;;;;22.70;54.50;;;;;;5112485;28;19931;-47
2021/12/09 03:17:15;;;;;;;;;;;22.70;54.50;;;;;;5113830;28;19923;-46
2021/12/09 03:19:42;;;;;;;;;;;22.70;54.50;;;;;;5095769;28;20390;-50
2021/12/09 03:22:09;;;;;;;;;;;22.70;54.50;;;;;;5113928;28;19927;-49
2021/12/09 03:24:36;;;;;;;;;;;22.70;54.60;;;;;;5113919;28;19928;-49
2021/12/09 03:27:04;;;;;;;;;;;22.70;54.60;;;;;;5113881;28;19923;-54
2021/12/09 03:29:31;;;;;;;;;;;22.70;54.60;;;;;;5094492;28;19931;-46
2021/12/09 03:32:03;;;;;;;;;;;22.70;54.60;;;;;;5113617;28;19924;-46
2021/12/09 03:34:32;;;;;;;;;;;22.70;54.50;;;;;;5113885;28;19930;-54
2021/12/09 03:37:00;;;;;;;;;;;22.70;54.60;;;;;;5113864;28;19927;-47
2021/12/09 03:39:28;;;;;;;;;;;22.70;54.60;;;;;;5113845;28;19931;-54
2021/12/09 03:41:56;;;;;;;;;;;22.70;54.60;;;;;;5114608;28;19946;-50
2021/12/09 03:44:23;;;;;;;;;;;22.70;54.60;;;;;;5117255;28;19930;-52
2021/12/09 03:46:52;;;;;;;;;;;22.70;54.60;;;;;;5116435;28;19928;-48
2021/12/09 03:49:19;;;;;;;;;;;22.70;54.60;;;;;;5117366;28;19969;-45
2021/12/09 03:51:46;;;;;;;;;;;22.70;54.60;;;;;;5117003;28;19923;-53
2021/12/09 03:54:13;;;;;;;;;;;22.70;54.60;;;;;;5116779;28;20272;-48
2021/12/09 03:56:40;;;;;;;;;;;22.70;54.60;;;;;;5117175;28;19924;-48
2021/12/09 03:59:08;;;;;;;;;;;22.70;54.60;;;;;;5098846;28;19973;-46
2021/12/09 04:01:37;;;;;;;;;;;22.60;54.50;;;;;;5115828;28;19923;-46
2021/12/09 04:04:05;;;;;;;;;;;22.70;54.60;;;;;;5117257;28;20018;-46
2021/12/09 04:06:32;;;;;;;;;;;22.60;54.50;;;;;;5116949;28;19928;-53
2021/12/09 04:09:00;;;;;;;;;;;22.60;54.50;;;;;;5116932;28;19992;-51
2021/12/09 04:11:27;;;;;;;;;;;22.60;54.50;;;;;;5098756;28;19969;-52
2021/12/09 04:13:58;;;;;;;;;;;22.60;54.50;;;;;;5116943;28;19963;-53
2021/12/09 04:16:25;;;;;;;;;;;22.60;54.50;;;;;;5094881;27;19924;-48
2021/12/09 04:18:52;;;;;;;;;;;22.60;54.50;;;;;;5137143;27;19965;-55
2021/12/09 04:21:19;;;;;;;;;;;22.60;54.50;;;;;;5118827;27;19960;-56
2021/12/09 04:23:46;;;;;;;;;;;22.60;54.50;;;;;;5136985;27;20392;-51
2021/12/09 04:26:13;;;;;;;;;;;22.60;54.50;;;;;;5136689;27;19924;-54
2021/12/09 04:28:42;;;;;;;;;;;22.60;54.50;;;;;;5137154;27;20317;-52
2021/12/09 04:31:09;;;;;;;;;;;22.60;54.50;;;;;;5124960;27;19927;-53
2021/12/09 04:33:36;;;;;;;;;;;22.60;54.50;;;;;;5116182;28;19971;-54
2021/12/09 04:36:04;;;;;;;;;;;22.60;54.50;;;;;;5116140;28;19969;-56
2021/12/09 04:38:31;;;;;;;;;;;22.60;54.50;;;;;;5116305;28;19923;-51
2021/12/09 04:40:58;;;;;;;;;;;22.60;54.60;;;;;;5116055;28;19957;-49
2021/12/09 04:43:25;;;;;;;;;;;22.60;54.60;;;;;;5116208;28;19923;-48
2021/12/09 04:45:52;;;;;;;;;;;22.60;54.60;;;;;;5096933;28;19924;-55
2021/12/09 04:48:20;;;;;;;;;;;22.60;54.60;;;;;;5115863;28;20353;-51
2021/12/09 04:50:47;;;;;;;;;;;22.60;54.60;;;;;;5116150;28;20290;-52
2021/12/09 04:53:14;;;;;;;;;;;22.60;54.60;;;;;;5115480;28;19954;-48
2021/12/09 04:55:41;;;;;;;;;;;22.60;54.60;;;;;;5115897;28;19924;-52
2021/12/09 04:58:08;;;;;;;;;;;22.60;54.60;;;;;;5116004;28;20057;-47
2021/12/09 05:00:39;;;;;;;;;;;22.60;54.60;;;;;;5115263;27;20399;-56
2021/12/09 05:03:10;;;;;;;;;;;22.60;54.60;;;;;;5115980;28;20342;-51
2021/12/09 05:05:48;;;;;;;;;;;22.60;54.60;;;;;;5115830;28;19923;-51
2021/12/09 05:08:22;;;;;;;;;;;22.60;54.60;;;;;;5115562;28;20377;-52
2021/12/09 05:13:18;;;;;;;;;;;22.60;54.60;;;;;;5115721;28;19923;-55
2021/12/09 05:15:46;;;;;;;;;;;22.60;54.60;;;;;;5114154;27;19928;-53
2021/12/09 05:18:13;;;;;;;;;;;22.50;54.50;;;;;;5097273;28;20421;-48
2021/12/09 05:20:40;;;;;;;;;;;22.60;54.50;;;;;;5115808;28;20340;-48
2021/12/09 05:23:07;;;;;;;;;;;22.60;54.50;;;;;;5115369;28;19977;-49
2021/12/09 05:25:34;;;;;;;;;;;22.60;54.60;;;;;;5097421;28;20310;-50
2021/12/09 05:28:01;;;;;;;;;;;22.50;54.40;;;;;;5115095;28;20017;-56
2021/12/09 05:30:39;;;;;;;;;;;22.50;54.40;;;;;;5115941;28;19924;-52
2021/12/09 05:33:07;;;;;;;;;;;22.60;54.50;;;;;;5115046;28;19931;-49
2021/12/09 05:35:34;;;;;;;;;;;22.50;54.40;;;;;;5114935;28;19928;-53
2021/12/09 05:38:01;;;;;;;;;;;22.50;54.40;;;;;;5115221;28;19992;-53
2021/12/09 05:40:28;;;;;;;;;;;22.50;54.80;;;;;;5114904;28;19928;-51
2021/12/09 05:42:54;;;;;;;;;;;22.50;54.40;;;;;;5114841;28;19924;-52
2021/12/09 05:45:21;;;;;;;;;;;22.50;54.40;;;;;;5115034;28;19965;-47
2021/12/09 05:47:49;;;;;;;;;;;22.60;54.50;;;;;;5113934;27;20310;-56
2021/12/09 05:50:16;;;;;;;;;;;22.50;54.40;;;;;;5097253;28;20286;-47
2021/12/09 05:52:43;;;;;;;;;;;22.50;54.40;;;;;;5114798;28;19924;-51
2021/12/09 05:55:11;;;;;;;;;;;22.50;54.40;;;;;;5114757;28;19927;-55
2021/12/09 05:57:38;;;;;;;;;;;22.60;54.50;;;;;;5114907;28;20272;-50
2021/12/09 06:00:06;;;;;;;;;;;22.50;54.40;;;;;;5114535;28;19977;-48
2021/12/09 06:02:34;;;;;;;;;;;22.50;54.40;;;;;;5113263;27;19931;-54
2021/12/09 06:05:03;;;;;;;;;;;22.50;54.40;;;;;;5113981;28;20394;-51
2021/12/09 06:07:30;;;;;;;;;;;22.50;54.40;;;;;;5114660;28;19928;-53
2021/12/09 06:09:59;;;;;;;;;;;22.50;54.40;;;;;;5114404;28;20018;-52
2021/12/09 06:12:25;;;;;;;;;;;22.50;54.30;;;;;;5114273;28;19946;-52
2021/12/09 06:14:53;;;;;;;;;;;22.50;54.30;;;;;;5114601;28;20302;-47
2021/12/09 06:17:19;;;;;;;;;;;22.60;54.40;;;;;;5112980;28;19973;-52
2021/12/09 06:19:47;;;;;;;;;;;22.60;54.40;;;;;;5096678;28;19923;-48
2021/12/09 06:22:14;;;;;;;;;;;22.60;55.00;;;;;;5114385;28;19923;-47
2021/12/09 06:24:41;;;;;;;;;;;22.60;54.40;;;;;;5113945;28;19924;-52
2021/12/09 06:27:09;;;;;;;;;;;22.60;54.30;;;;;;5096352;28;20019;-48
2021/12/09 06:29:36;;;;;;;;;;;22.60;54.30;;;;;;5114417;28;19924;-49
2021/12/09 06:32:03;;;;;;;;;;;22.60;54.30;;;;;;5113046;28;19966;-51
2021/12/09 06:34:30;;;;;;;;;;;22.60;54.30;;;;;;5114127;28;19924;-53
2021/12/09 06:36:57;;;;;;;;;;;22.60;54.30;;;;;;5114403;28;19931;-52
2021/12/09 06:39:24;;;;;;;;;;;22.60;54.20;;;;;;5114346;28;19950;-51
2021/12/09 06:41:51;;;;;;;;;;;22.60;54.20;;;;;;5114050;28;19928;-49
2021/12/09 06:44:18;;;;;;;;;;;22.60;54.20;;;;;;5114337;28;19924;-52
2021/12/09 06:46:45;;;;;;;;;;;22.60;54.20;;;;;;5113246;28;19947;-46
2021/12/09 06:49:13;;;;;;;;;;;22.60;54.20;;;;;;5114288;28;19923;-54
2021/12/09 06:51:39;;;;;;;;;;;22.60;54.80;;;;;;5114246;28;20329;-46
2021/12/09 06:54:06;;;;;;;;;;;22.60;54.20;;;;;;5113575;28;19924;-51
2021/12/09 06:56:35;;;;;;;;;;;22.60;54.20;;;;;;5113875;28;19971;-46
2021/12/09 06:59:02;;;;;;;;;;;22.60;54.10;;;;;;5114187;28;19985;-55
2021/12/09 07:01:37;;;;;;;;;;;22.60;54.10;;;;;;5113091;28;19923;-51
2021/12/09 07:04:08;;;;;;;;;;;22.70;54.20;;;;;;5114409;28;19971;-53
2021/12/09 07:06:37;;;;;;;;;;;22.70;54.20;;;;;;5114056;28;19924;-51
2021/12/09 07:09:04;;;;;;;;;;;22.70;54.20;;;;;;5114079;28;19927;-50
2021/12/09 07:11:38;;;;;;;;;;;22.70;54.10;;;;;;5114160;28;20006;-50
2021/12/09 07:14:05;;;;;;;;;;;22.70;54.00;;;;;;5114388;28;19923;-53
2021/12/09 07:16:32;;;;;;;;;;;22.70;54.00;;;;;;5113949;28;19946;-51
2021/12/09 07:19:00;;;;;;;;;;;22.70;54.00;;;;;;5116195;27;20302;-54
2021/12/09 07:21:27;;;;;;;;;;;22.70;54.00;;;;;;5117443;28;19923;-55
2021/12/09 07:23:54;;;;;;;;;;;22.70;54.00;;;;;;5117314;28;19924;-52
2021/12/09 07:26:21;;;;;;;;;;;22.70;54.00;;;;;;5117247;28;19932;-54
2021/12/09 07:28:48;;;;;;;;;;;22.70;53.90;;;;;;5117351;28;19924;-48
2021/12/09 07:31:16;;;;;;;;;;;22.70;53.90;;;;;;5117704;28;20328;-49
2021/12/09 07:33:43;;;;;;;;;;;22.70;53.90;;;;;;5116569;28;19930;-55
2021/12/09 07:36:10;;;;;;;;;;;22.70;53.80;;;;;;5117554;28;19973;-48
2021/12/09 07:38:37;;;;;;;;;;;22.80;54.00;;;;;;5117584;28;20014;-50
2021/12/09 07:41:05;;;;;;;;;;;22.80;53.90;;;;;;5117960;28;19966;-56
2021/12/09 07:43:32;;;;;;;;;;;22.80;53.90;;;;;;5117417;28;20336;-56
2021/12/09 07:45:59;;;;;;;;;;;22.80;53.80;;;;;;5117030;28;20409;-55
2021/12/09 07:48:26;;;;;;;;;;;22.80;53.80;;;;;;5116059;27;19965;-55
2021/12/09 07:50:53;;;;;;;;;;;22.80;53.90;;;;;;5117347;28;19924;-48
2021/12/09 07:53:22;;;;;;;;;;;22.80;53.80;;;;;;5116803;28;19997;-51
2021/12/09 07:55:50;;;;;;;;;;;22.80;53.80;;;;;;5116802;28;19924;-56
2021/12/09 07:58:17;;;;;;;;;;;22.80;53.80;;;;;;5117093;28;19977;-57
2021/12/09 08:00:45;;;;;;;;;;;22.80;53.80;;;;;;5117088;28;20275;-52
2021/12/09 08:03:12;;;;;;;;;;;22.80;53.70;;;;;;5115671;27;19976;-52
2021/12/09 08:05:41;;;;;;;;;;;22.80;53.70;;;;;;5116951;28;19924;-51
2021/12/09 08:08:08;;;;;;;;;;;22.80;54.30;;;;;;5116584;28;20397;-51
2021/12/09 08:10:35;;;;;;;;;;;22.80;53.70;;;;;;5116591;28;19923;-48
2021/12/09 08:13:03;;;;;;;;;;;22.80;53.60;;;;;;5116589;28;20014;-49
2021/12/09 08:15:35;;;;;;;;;;;22.80;53.60;;;;;;5117345;28;19924;-47
2021/12/09 08:18:25;;;;;;;;;;;22.90;53.70;;;;;;5115326;27;19927;-48
2021/12/09 08:20:54;;;;;;;;;;;22.90;53.70;;;;;;5116576;28;19924;-45
2021/12/09 08:23:21;;;;;;;;;;;22.90;53.60;;;;;;5116136;28;19923;-50
2021/12/09 08:25:48;;;;;;;;;;;22.90;53.60;;;;;;5116491;28;19924;-49
2021/12/09 08:28:17;;;;;;;;;;;22.90;53.60;;;;;;5116087;28;20279;-49
2021/12/09 08:30:44;;;;;;;;;;;22.90;53.60;;;;;;5116231;28;19928;-51
2021/12/09 08:33:18;;;;;;;;;;;22.90;53.60;;;;;;5115295;27;19977;-52
2021/12/09 08:35:45;;;;;;;;;;;22.90;53.60;;;;;;5116394;28;20018;-48
2021/12/09 08:38:12;;;;;;;;;;;22.90;53.50;;;;;;5116379;28;19933;-50
2021/12/09 08:40:42;;;;;;;;;;;22.90;53.50;;;;;;5116350;28;20012;-45
2021/12/09 08:43:10;;;;;;;;;;;22.90;53.50;;;;;;5116275;28;19973;-48
2021/12/09 08:45:37;;;;;;;;;;;22.90;53.40;;;;;;5115883;28;19977;-54
2021/12/09 08:48:04;;;;;;;;;;;23.00;53.50;;;;;;5115068;27;19931;-49
2021/12/09 08:50:33;;;;;;;;;;;23.00;53.50;;;;;;5116102;28;19923;-53
2021/12/09 08:53:03;;;;;;;;;;;23.00;53.50;;;;;;5115654;28;19924;-49
2021/12/09 08:55:30;;;;;;;;;;;23.00;53.40;;;;;;5115655;28;19931;-54
2021/12/09 08:57:57;;;;;;;;;;;23.00;53.40;;;;;;5115604;28;19924;-50
2021/12/09 09:00:26;;;;;;;;;;;23.00;53.40;;;;;;5115600;28;19953;-48
2021/12/09 09:02:57;;;;;;;;;;;23.00;53.40;;;;;;5114950;28;19992;-53
2021/12/09 09:05:25;;;;;;;;;;;23.00;53.40;;;;;;5115863;28;19928;-54
2021/12/09 09:07:52;;;;;;;;;;;23.00;53.30;;;;;;5115355;28;19979;-55
2021/12/09 09:10:21;;;;;;;;;;;23.00;53.30;;;;;;5097380;28;20438;-51
2021/12/09 09:12:49;;;;;;;;;;;23.00;53.30;;;;;;5115629;28;20349;-45
2021/12/09 09:15:17;;;;;;;;;;;23.10;53.30;;;;;;5097541;28;20285;-46
2021/12/09 09:17:45;;;;;;;;;;;23.00;53.30;;;;;;5115410;28;20367;-49
2021/12/09 09:20:13;;;;;;;;;;;23.10;53.30;;;;;;5114151;28;19924;-53
2021/12/09 09:22:41;;;;;;;;;;;23.10;53.20;;;;;;5114951;28;19923;-46
2021/12/09 09:25:10;;;;;;;;;;;23.10;53.20;;;;;;5115226;28;19968;-50
2021/12/09 09:27:37;;;;;;;;;;;23.10;53.20;;;;;;5115555;28;19925;-52
2021/12/09 09:30:05;;;;;;;;;;;23.10;53.10;;;;;;5115270;28;19923;-51
2021/12/09 09:32:33;;;;;;;;;;;23.10;53.70;;;;;;5115303;28;19928;-50
2021/12/09 09:35:00;;;;;;;;;;;23.20;53.10;;;;;;5114019;27;19931;-53
2021/12/09 09:37:28;;;;;;;;;;;23.20;53.00;;;;;;5114943;28;19924;-51
2021/12/09 09:40:05;;;;;;;;;;;23.20;53.60;;;;;;5114450;28;19930;-48
2021/12/09 09:45:02;;;;;;;;;;;23.30;53.00;;;;;;5114787;28;19959;-49
2021/12/09 09:47:30;;;;;;;;;;;23.30;52.90;;;;;;5114620;28;19924;-49
2021/12/09 09:49:57;;;;;;;;;;;23.30;52.80;;;;;;5113803;28;19928;-50
2021/12/09 09:52:25;;;;;;;;;;;23.30;52.80;;;;;;5114446;28;19923;-48
2021/12/09 09:54:55;;;;;;;;;;;23.30;52.80;;;;;;5114504;28;19928;-52
2021/12/09 09:57:23;;;;;;;;;;;23.30;52.80;;;;;;5114608;28;19973;-46
2021/12/09 09:59:50;;;;;;;;;;;23.30;52.70;;;;;;5096595;28;20352;-55
2021/12/09 10:02:17;;;;;;;;;;;23.30;52.70;;;;;;5114833;28;19924;-55
2021/12/09 10:07:12;;;;;;;;;;;23.40;52.70;;;;;;5114212;28;19953;-51
2021/12/09 10:09:39;;;;;;;;;;;23.40;52.70;;;;;;5114361;28;19931;-53
2021/12/09 10:12:07;;;;;;;;;;;23.40;52.60;;;;;;5114243;28;19924;-50
2021/12/09 10:14:35;;;;;;;;;;;23.40;52.60;;;;;;5114198;28;20432;-55
2021/12/09 10:17:09;;;;;;;;;;;23.40;52.60;;;;;;5114182;28;19927;-49
2021/12/09 10:19:38;;;;;;;;;;;23.40;52.60;;;;;;5112840;28;19923;-49
2021/12/09 10:22:07;;;;;;;;;;;23.40;52.60;;;;;;5114181;28;19924;-49
2021/12/09 10:24:34;;;;;;;;;;;23.40;52.50;;;;;;5113653;28;19930;-49
2021/12/09 10:27:02;;;;;;;;;;;23.50;52.50;;;;;;5114010;28;20375;-51
2021/12/09 10:29:33;;;;;;;;;;;23.50;52.50;;;;;;5114031;28;19931;-45
2021/12/09 10:32:03;;;;;;;;;;;23.50;52.40;;;;;;5114334;28;19924;-49
2021/12/09 10:37:10;;;;;;;;;;;23.50;52.40;;;;;;5114111;28;19931;-48
2021/12/09 10:39:37;;;;;;;;;;;23.50;52.40;;;;;;5114002;28;19924;-55
2021/12/09 10:42:06;;;;;;;;;;;23.50;52.30;;;;;;5113990;28;19924;-55
2021/12/09 10:44:45;;;;;;;;;;;23.50;52.30;;;;;;5113962;28;20423;-53
2021/12/09 10:47:20;;;;;;;;;;;23.50;52.30;;;;;;5114256;28;19923;-55
2021/12/09 10:49:53;;;;;;;;;;;23.50;52.20;;;;;;5113309;28;20310;-54
2021/12/09 10:52:24;;;;;;;;;;;23.60;52.30;;;;;;5117236;28;19924;-56
2021/12/09 10:54:51;;;;;;;;;;;23.60;52.30;;;;;;5118321;28;19924;-56
2021/12/09 10:57:28;;;;;;;;;;;23.60;52.20;;;;;;5118052;28;19924;-55
2021/12/09 10:59:56;;;;;;;;;;;23.60;52.20;;;;;;5118309;28;20285;-50
2021/12/09 11:02:24;;;;;;;;;;;23.60;52.20;;;;;;5117907;28;19928;-56
2021/12/09 11:04:58;;;;;;;;;;;23.70;52.20;;;;;;5116837;28;19969;-54
2021/12/09 11:07:29;;;;;;;;;;;23.70;52.20;;;;;;5100033;28;19951;-47
2021/12/09 11:10:15;;;;;;;;;;;23.70;52.20;;;;;;5118143;28;19923;-55
2021/12/09 11:12:50;;;;;;;;;;;23.70;52.10;;;;;;5118091;28;19930;-53
2021/12/09 11:15:18;;;;;;;;;;;23.70;52.00;;;;;;5117995;28;19931;-54
2021/12/09 11:17:49;;;;;;;;;;;23.70;52.00;;;;;;5117246;28;19931;-55
2021/12/09 11:20:35;;;;;;;;;;;23.70;52.00;;;;;;5116490;27;20422;-49
2021/12/09 11:23:22;;;;;;;;;;;23.70;52.00;;;;;;5117863;28;19974;-53
2021/12/09 11:25:50;;;;;;;;;;;23.70;51.90;;;;;;5117464;28;19924;-51
2021/12/09 11:28:17;;;;;;;;;;;23.70;51.90;;;;;;5117723;28;19924;-51
2021/12/09 11:31:06;;;;;;;;;;;23.80;52.00;;;;;;5117424;28;19924;-45
2021/12/09 11:33:39;;;;;;;;;;;23.80;52.00;;;;;;5117702;28;20298;-54
2021/12/09 11:36:07;;;;;;;;;;;23.80;52.00;;;;;;5116851;27;19924;-53
2021/12/09 11:39:05;;;;;;;;;;;23.80;52.00;;;;;;5117521;28;19924;-52
2021/12/09 11:41:35;;;;;;;;;;;23.80;52.00;;;;;;5117277;28;20413;-48
2021/12/09 11:44:06;;;;;;;;;;;23.80;51.90;;;;;;5099746;28;19931;-47
2021/12/09 11:46:34;;;;;;;;;;;23.80;51.90;;;;;;5117091;28;19924;-48
2021/12/09 11:49:01;;;;;;;;;;;23.80;51.90;;;;;;5117008;28;19923;-49
2021/12/09 11:51:28;;;;;;;;;;;23.80;51.90;;;;;;5115855;28;19927;-53
2021/12/09 11:53:57;;;;;;;;;;;23.80;51.90;;;;;;5117192;28;20339;-48
2021/12/09 11:56:36;;;;;;;;;;;23.80;51.90;;;;;;5116954;28;20416;-50
2021/12/09 12:13:34;;;;;;;;;;;23.90;51.90;;;;;;5116933;28;19923;-51
2021/12/09 12:16:21;;;;;;;;;;;23.90;51.80;;;;;;5116588;28;19931;-53
2021/12/09 12:18:57;;;;;;;;;;;23.90;51.80;;;;;;5116432;28;19924;-51
2021/12/09 12:24:17;;;;;;;;;;;23.90;51.90;;;;;;5116131;28;20378;-52
2021/12/09 12:37:43;;;;;;;;;;;23.80;51.90;;;;;;5115072;27;19924;-54
2021/12/09 12:40:12;;;;;;;;;;;23.80;51.90;;;;;;5116425;28;19927;-56
2021/12/09 12:42:55;;;;;;;;;;;23.90;52.00;;;;;;5116042;28;19934;-50
2021/12/09 12:50:36;;;;;;;;;;;23.90;51.90;;;;;;5114786;28;20054;-48
2021/12/09 12:53:41;;;;;;;;;;;23.90;52.00;;;;;;5115660;28;19928;-51
2021/12/09 12:56:10;;;;;;;;;;;23.90;52.00;;;;;;5013628;28;19925;-47
2021/12/09 12:58:37;;;;;;;;;;;23.90;52.00;;;;;;5014161;28;19925;-51
2021/12/09 13:01:15;;;;;;;;;;;23.90;52.00;;;;;;5013333;28;20012;-48
2021/12/09 13:03:48;;;;;;;;;;;23.90;52.00;;;;;;5013324;28;20004;-50
2021/12/09 13:06:57;;;;;;;;;;;23.90;52.00;;;;;;5003409;28;19926;-49
2021/12/09 13:09:37;;;;;;;;;;;23.90;52.00;;;;;;4993988;28;19929;-48
2021/12/09 13:12:08;;;;;;;;;;;23.90;52.10;;;;;;4993804;28;20369;-55
2021/12/09 13:15:01;;;;;;;;;;;23.90;52.00;;;;;;4993569;28;19926;-46
2021/12/09 13:17:39;;;;;;;;;;;23.80;52.00;;;;;;4989676;28;19965;-51
2021/12/09 13:20:15;;;;;;;;;;;23.80;52.00;;;;;;4993358;28;19926;-50
2021/12/09 13:22:42;;;;;;;;;;;23.80;52.00;;;;;;4975823;28;19926;-49
2021/12/09 13:25:25;;;;;;;;;;;23.80;52.00;;;;;;4973901;28;19926;-46
2021/12/09 13:30:49;;;;;;;;;;;23.80;52.10;;;;;;5020561;28;19925;-47
2021/12/09 13:54:29;;;;;;;;;;;23.80;52.20;;;;;;5114400;28;20379;-52
2021/12/09 13:57:01;;;;;;;;;;;23.80;52.30;;;;;;5114920;28;20294;-49
2021/12/09 13:59:29;;;;;;;;;;;23.80;52.30;;;;;;5114541;28;19998;-56
2021/12/09 14:01:57;;;;;;;;;;;23.80;52.30;;;;;;5115053;28;20294;-56
2021/12/09 14:04:32;;;;;;;;;;;23.80;52.30;;;;;;5114771;28;19990;-56
2021/12/09 14:07:08;;;;;;;;;;;23.70;52.30;;;;;;5113289;28;19977;-51
2021/12/09 14:09:36;;;;;;;;;;;23.70;52.30;;;;;;5114716;28;19930;-54
2021/12/09 14:12:04;;;;;;;;;;;23.80;53.00;;;;;;5114734;28;19924;-52
2021/12/09 14:14:58;;;;;;;;;;;23.70;52.30;;;;;;5114358;28;19924;-52
2021/12/09 14:17:27;;;;;;;;;;;23.70;52.40;;;;;;5114131;28;19924;-55
2021/12/09 14:19:58;;;;;;;;;;;23.70;52.40;;;;;;5096639;28;19928;-54
2021/12/09 14:22:26;;;;;;;;;;;23.70;52.40;;;;;;5112854;27;19923;-55
2021/12/09 14:24:54;;;;;;;;;;;23.70;52.40;;;;;;5096298;28;19930;-54
2021/12/09 14:27:21;;;;;;;;;;;23.70;52.40;;;;;;5114135;28;19966;-53
2021/12/09 14:29:51;;;;;;;;;;;23.70;52.40;;;;;;5114146;28;20374;-51
2021/12/09 14:32:20;;;;;;;;;;;23.70;52.50;;;;;;5115056;28;19930;-53
2021/12/09 14:34:55;;;;;;;;;;;23.70;52.50;;;;;;5114103;28;19928;-53
2021/12/09 14:37:38;;;;;;;;;;;23.70;52.50;;;;;;5113235;28;19924;-47
2021/12/09 14:40:08;;;;;;;;;;;23.70;52.60;;;;;;5114361;28;20303;-50
2021/12/09 14:42:45;;;;;;;;;;;23.70;52.60;;;;;;5114382;28;19923;-46
2021/12/09 14:45:12;;;;;;;;;;;23.70;52.60;;;;;;5114335;28;19931;-54
2021/12/09 14:47:39;;;;;;;;;;;23.70;52.60;;;;;;5114911;28;20363;-50
2021/12/09 14:50:08;;;;;;;;;;;23.70;52.60;;;;;;5113896;28;19954;-49
2021/12/09 14:52:36;;;;;;;;;;;23.70;52.60;;;;;;5112801;28;19927;-53
2021/12/09 14:55:14;;;;;;;;;;;23.70;52.70;;;;;;5114006;28;19973;-52
2021/12/09 14:58:00;;;;;;;;;;;23.70;52.70;;;;;;5114141;28;20290;-50
2021/12/09 15:00:32;;;;;;;;;;;23.70;52.70;;;;;;5113828;28;19924;-53
2021/12/09 15:03:01;;;;;;;;;;;23.60;52.70;;;;;;5113865;28;19924;-48
2021/12/09 15:05:29;;;;;;;;;;;23.60;52.70;;;;;;5096149;28;19924;-52
2021/12/09 15:08:06;;;;;;;;;;;23.60;52.70;;;;;;5112613;28;19924;-52
2021/12/09 15:10:35;;;;;;;;;;;23.60;52.70;;;;;;5113807;28;19924;-51
2021/12/09 15:13:03;;;;;;;;;;;23.70;52.80;;;;;;5113777;28;19924;-47
2021/12/09 15:15:31;;;;;;;;;;;23.60;52.70;;;;;;5113742;28;20397;-50
2021/12/09 15:18:00;;;;;;;;;;;23.60;52.70;;;;;;5095703;28;20325;-52
2021/12/09 15:20:37;;;;;;;;;;;23.70;52.80;;;;;;5113672;28;19923;-44
2021/12/09 15:23:15;;;;;;;;;;;23.60;52.80;;;;;;5112280;28;19934;-51
2021/12/09 15:25:44;;;;;;;;;;;23.60;52.80;;;;;;5113855;28;19928;-53
2021/12/09 15:28:11;;;;;;;;;;;23.60;52.80;;;;;;5113573;28;20375;-52
2021/12/09 15:30:38;;;;;;;;;;;23.60;52.80;;;;;;5113611;28;19924;-50
2021/12/09 15:33:05;;;;;;;;;;;23.60;52.80;;;;;;5113903;28;19946;-51
2021/12/09 15:35:33;;;;;;;;;;;23.60;52.80;;;;;;5113552;28;20023;-52
2021/12/09 15:38:01;;;;;;;;;;;23.60;52.80;;;;;;5113297;28;20427;-52